Time;durP1;ratioP1;P1;durP2;ratioP2;P2;SDS_P1;SDS_P2;PMS_P1;PMS_P2;Temp;Humidity;BMP_temperature;BMP_pressure;BME280_temperature;BME280_humidity;BME280_pressure;Samples;Min_cycle;Max_cycle;Signal;HPM_P1;HPM_P2
2024/01/30 00:02:16;;;;;;;14.52;7.35;;;;;;;8.35;100.00;102494.69;5012161;28;20489;-67
2024/01/30 00:04:41;;;;;;;9.60;7.35;;;;;;;8.33;100.00;102488.56;5011845;28;20083;-67
2024/01/30 00:07:07;;;;;;;12.50;7.57;;;;;;;8.32;100.00;102484.16;5014679;28;20160;-67
2024/01/30 00:09:35;;;;;;;10.07;6.57;;;;;;;8.32;100.00;102478.84;5011943;28;20109;-67
2024/01/30 00:12:00;;;;;;;10.32;7.50;;;;;;;8.22;100.00;102470.28;5010250;28;20029;-67
2024/01/30 00:14:26;;;;;;;10.23;6.68;;;;;;;8.25;99.96;102472.88;5012128;28;20038;-67
2024/01/30 00:16:51;;;;;;;9.20;7.15;;;;;;;8.25;99.83;102482.59;5011507;28;20084;-67
2024/01/30 00:19:17;;;;;;;10.65;6.65;;;;;;;8.22;100.00;102483.56;5010916;28;20034;-67
2024/01/30 00:21:43;;;;;;;12.95;6.88;;;;;;;8.19;100.00;102475.69;5011003;28;20125;-67
2024/01/30 00:24:08;;;;;;;7.53;6.32;;;;;;;8.20;100.00;102480.06;5012113;28;20033;-67
2024/01/30 00:26:34;;;;;;;9.60;6.82;;;;;;;8.11;100.00;102469.72;5011699;28;20428;-67
2024/01/30 00:28:59;;;;;;;9.77;6.93;;;;;;;8.14;100.00;102480.22;5011140;28;20298;-67
2024/01/30 00:31:25;;;;;;;9.93;7.32;;;;;;;8.08;100.00;102465.34;5010747;28;20091;-67
2024/01/30 00:33:53;;;;;;;12.00;7.07;;;;;;;8.10;100.00;102474.16;5011896;28;20088;-67
2024/01/30 00:36:18;;;;;;;11.50;6.78;;;;;;;8.11;100.00;102472.38;5011423;28;20382;-67
2024/01/30 00:38:43;;;;;;;9.73;7.35;;;;;;;8.08;100.00;102472.44;5009710;28;20152;-67
2024/01/30 00:41:09;;;;;;;12.35;7.75;;;;;;;8.01;100.00;102452.34;5010616;28;20022;-67
2024/01/30 00:43:35;;;;;;;9.02;6.90;;;;;;;8.08;100.00;102469.78;5009864;28;20033;-67
2024/01/30 00:46:05;;;;;;;8.70;6.07;;;;;;;8.03;100.00;102464.63;5012040;28;20057;-67
2024/01/30 00:48:30;;;;;;;;;;;;;;;8.11;99.79;102467.06;5010428;28;20029;-67
2024/01/30 00:50:56;;;;;;;8.50;6.95;;;;;;;8.07;100.00;102468.94;5011292;28;19918;-67
2024/01/30 00:53:21;;;;;;;8.88;6.78;;;;;;;8.06;100.00;102464.56;5011173;28;20025;-67
2024/01/30 00:55:47;;;;;;;11.48;8.07;;;;;;;8.06;100.00;102461.00;5011396;28;20041;-67
2024/01/30 00:58:12;;;;;;;11.13;7.00;;;;;;;8.04;100.00;102460.19;5011199;28;20097;-67
2024/01/30 01:00:39;;;;;;;9.52;6.72;;;;;;;8.04;100.00;102460.19;5010053;28;20481;-67
2024/01/30 01:03:04;;;;;;;10.68;6.82;;;;;;;8.01;100.00;102461.16;5009579;28;20071;-67
2024/01/30 01:05:30;;;;;;;10.25;7.70;;;;;;;8.02;100.00;102462.00;5010913;28;20283;-67
2024/01/30 01:07:55;;;;;;;8.75;6.85;;;;;;;8.02;100.00;102464.66;5010045;28;20029;-67
2024/01/30 01:10:23;;;;;;;9.73;6.78;;;;;;;8.01;100.00;102460.28;5011808;28;20029;-67
2024/01/30 01:12:49;;;;;;;8.13;6.85;;;;;;;7.97;100.00;102451.53;5016096;28;20044;-67
2024/01/30 01:15:14;;;;;;;11.27;7.07;;;;;;;7.93;100.00;102447.22;4991075;28;20037;-67
2024/01/30 01:17:40;;;;;;;10.90;7.35;;;;;;;8.00;100.00;102450.56;4991915;28;20033;-67
2024/01/30 01:20:07;;;;;;;8.60;6.82;;;;;;;7.99;100.00;102457.66;4991283;28;20034;-67
2024/01/30 01:22:35;;;;;;;13.35;7.00;;;;;;;8.01;100.00;102457.63;4991755;28;20400;-67
2024/01/30 01:25:01;;;;;;;11.00;6.82;;;;;;;8.01;100.00;102452.34;4993305;28;20034;-67
2024/01/30 01:27:31;;;;;;;9.30;6.55;;;;;;;8.02;100.00;102448.75;5007352;28;20489;-67
2024/01/30 01:29:57;;;;;;;8.02;6.93;;;;;;;7.99;100.00;102443.53;5007337;28;20030;-67
2024/01/30 01:32:22;;;;;;;10.13;6.47;;;;;;;8.02;100.00;102448.75;5009537;28;20382;-67
2024/01/30 01:34:48;;;;;;;9.63;6.50;;;;;;;7.99;100.00;102439.09;5009739;28;20048;-67
2024/01/30 01:37:15;;;;;;;9.80;7.18;;;;;;;8.03;100.00;102445.19;5009481;28;20025;-67
2024/01/30 01:39:41;;;;;;;8.90;7.53;;;;;;;8.01;100.00;102439.94;5010983;28;20390;-67
2024/01/30 01:42:06;;;;;;;9.35;6.88;;;;;;;8.04;100.00;102441.66;5011043;28;20022;-67
2024/01/30 01:44:32;;;;;;;12.48;6.72;;;;;;;8.05;99.81;102443.38;5009473;28;20022;-67
2024/01/30 01:46:57;;;;;;;9.07;6.55;;;;;;;8.05;100.00;102446.91;5010444;28;20044;-67
2024/01/30 01:49:27;;;;;;;11.20;6.50;;;;;;;8.06;99.95;102434.50;5011013;28;20021;-67
2024/01/30 01:51:56;;;;;;;9.38;6.35;;;;;;;8.07;100.00;102434.47;5010026;28;20045;-67
2024/01/30 01:54:23;;;;;;;8.43;6.65;;;;;;;8.11;100.00;102432.59;5009492;28;20022;-67
2024/01/30 01:56:49;;;;;;;10.55;6.70;;;;;;;8.13;99.94;102433.44;5010397;28;20022;-67
2024/01/30 01:59:14;;;;;;;11.55;6.47;;;;;;;8.14;99.47;102432.53;5009201;28;20376;-67
2024/01/30 02:01:41;;;;;;;12.23;7.03;;;;;;;8.13;99.21;102423.72;5009746;28;20536;-67
2024/01/30 02:04:07;;;;;;;10.45;6.40;;;;;;;8.16;99.44;102425.41;5008506;28;20025;-67
2024/01/30 02:06:34;;;;;;;11.45;6.35;;;;;;;8.16;99.43;102417.47;5009855;28;20025;-67
2024/01/30 02:08:59;;;;;;;11.98;6.75;;;;;;;8.15;99.01;102413.94;5008089;28;20478;-67
2024/01/30 02:11:25;;;;;;;11.10;6.63;;;;;;;8.12;99.04;102413.16;5007495;28;20066;-67
2024/01/30 02:13:50;;;;;;;11.57;6.88;;;;;;;8.14;99.04;102424.56;4997059;28;20045;-67
2024/01/30 02:16:17;;;;;;;7.20;6.05;;;;;;;8.17;99.47;102425.34;4998786;28;20021;-67
2024/01/30 02:18:45;;;;;;;9.77;6.03;;;;;;;8.15;98.94;102421.91;4999698;28;20026;-67
2024/01/30 02:21:11;;;;;;;9.13;6.70;;;;;;;8.16;98.86;102417.47;5002077;28;20018;-67
2024/01/30 02:23:37;;;;;;;10.45;6.25;;;;;;;8.13;98.82;102415.75;4999003;28;20564;-68
2024/01/30 02:26:03;;;;;;;9.57;6.70;;;;;;;8.12;99.29;102403.44;5001243;28;20109;-67
2024/01/30 02:28:28;;;;;;;9.20;6.82;;;;;;;8.18;99.12;102423.59;4998390;28;20109;-67
2024/01/30 02:30:56;;;;;;;9.02;7.28;;;;;;;8.18;99.16;102428.91;4997681;28;20048;-67
2024/01/30 02:33:22;;;;;;;10.25;6.60;;;;;;;8.16;99.14;102420.97;4997063;28;20398;-67
2024/01/30 02:35:47;;;;;;;7.13;5.97;;;;;;;8.15;98.84;102416.59;5003242;28;20056;-67
2024/01/30 02:38:13;;;;;;;8.02;6.25;;;;;;;8.15;99.35;102411.31;4997866;28;20137;-66
2024/01/30 02:40:39;;;;;;;11.50;6.90;;;;;;;8.15;99.15;102413.09;5000958;28;20543;-67
2024/01/30 02:43:06;;;;;;;14.00;7.00;;;;;;;8.18;98.97;102415.66;5008244;28;20366;-67
2024/01/30 02:45:32;;;;;;;12.07;7.20;;;;;;;8.18;99.09;102410.34;5000471;28;20037;-67
2024/01/30 02:47:57;;;;;;;12.38;6.45;;;;;;;8.16;99.07;102413.03;5005902;28;20026;-67
2024/01/30 02:50:23;;;;;;;9.02;6.65;;;;;;;8.06;99.12;102408.91;5003601;28;20390;-67
2024/01/30 02:52:48;;;;;;;9.05;6.40;;;;;;;8.11;99.26;102406.97;5005786;28;20109;-67
2024/01/30 02:55:13;;;;;;;9.73;6.55;;;;;;;8.15;99.33;102421.03;5001829;28;20089;-67
2024/01/30 02:57:39;;;;;;;11.23;6.53;;;;;;;8.14;98.98;102406.88;5004517;28;20030;-67
2024/01/30 03:00:06;;;;;;;8.88;6.65;;;;;;;8.18;99.02;102411.22;5006678;28;20022;-67
2024/01/30 03:02:32;;;;;;;13.43;7.05;;;;;;;8.16;99.21;102404.22;5011665;28;20029;-67
2024/01/30 03:04:59;;;;;;;9.07;6.57;;;;;;;8.14;99.21;102401.59;5013680;28;20026;-67
2024/01/30 03:07:24;;;;;;;8.57;6.30;;;;;;;8.14;99.22;102400.72;5012422;28;20496;-67
2024/01/30 03:09:50;;;;;;;9.48;6.75;;;;;;;8.09;99.17;102398.22;5013069;28;20156;-67
2024/01/30 03:12:15;;;;;;;8.45;6.07;;;;;;;8.08;99.71;102387.66;5012532;28;20095;-67
2024/01/30 03:14:41;;;;;;;12.43;6.50;;;;;;;8.10;99.66;102380.53;5013047;28;20041;-67
2024/01/30 03:17:06;;;;;;;10.27;6.25;;;;;;;8.12;99.77;102387.53;5011460;28;20030;-67
2024/01/30 03:19:32;;;;;;;9.00;6.05;;;;;;;8.05;99.48;102375.34;5012011;28;20394;-67
2024/01/30 03:21:59;;;;;;;9.73;6.35;;;;;;;8.00;99.71;102369.34;5012360;28;20333;-67
2024/01/30 03:24:25;;;;;;;11.63;6.55;;;;;;;8.03;99.57;102377.19;5012791;28;20053;-67
2024/01/30 03:26:53;;;;;;;10.10;7.57;;;;;;;8.08;99.55;102382.34;5012759;28;20119;-67
2024/01/30 03:29:18;;;;;;;10.20;6.50;;;;;;;8.08;99.83;102380.56;5011885;28;20444;-67
2024/01/30 03:31:44;;;;;;;8.65;5.63;;;;;;;8.05;99.87;102379.78;5012354;28;20029;-67
2024/01/30 03:34:09;;;;;;;7.40;6.15;;;;;;;8.08;99.98;102377.91;5013553;28;20393;-67
2024/01/30 03:36:34;;;;;;;8.75;5.82;;;;;;;8.04;99.42;102373.63;5013107;28;20109;-67
2024/01/30 03:39:01;;;;;;;10.10;6.43;;;;;;;8.03;100.00;102373.66;5012581;28;20046;-67
2024/01/30 03:41:27;;;;;;;11.07;6.13;;;;;;;8.08;99.87;102382.34;5013099;28;20501;-67
2024/01/30 03:43:52;;;;;;;8.02;6.18;;;;;;;8.05;99.64;102378.00;5012562;28;20121;-67
2024/01/30 03:46:20;;;;;;;13.80;6.00;;;;;;;8.07;99.65;102385.91;5011334;28;20465;-67
2024/01/30 03:48:48;;;;;;;9.18;6.63;;;;;;;7.99;99.83;102372.88;5011839;28;20036;-67
2024/01/30 03:51:15;;;;;;;10.75;5.60;;;;;;;8.05;99.80;102393.03;5011295;28;20026;-67
2024/01/30 03:53:41;;;;;;;11.77;6.60;;;;;;;8.04;99.83;102389.53;5011020;28;20469;-67
2024/01/30 03:56:08;;;;;;;9.68;6.13;;;;;;;8.03;100.00;102395.75;5012172;28;20040;-67
2024/01/30 03:58:33;;;;;;;7.65;6.00;;;;;;;8.01;100.00;102392.25;5012587;28;20026;-67
2024/01/30 04:00:58;;;;;;;11.88;6.70;;;;;;;7.97;100.00;102385.28;5010364;28;20037;-67
2024/01/30 04:03:24;;;;;;;12.27;6.47;;;;;;;8.05;100.00;102395.69;5012152;28;20052;-67
2024/01/30 04:05:51;;;;;;;7.90;5.88;;;;;;;8.06;100.00;102393.00;5012127;28;20029;-67
2024/01/30 04:08:16;;;;;;;8.52;5.72;;;;;;;8.08;100.00;102388.50;5009670;28;20034;-67
2024/01/30 04:10:42;;;;;;;9.02;5.88;;;;;;;8.07;100.00;102388.56;5010902;28;20061;-67
2024/01/30 04:13:08;;;;;;;8.52;6.43;;;;;;;8.10;100.00;102394.66;5011946;28;20022;-67
2024/01/30 04:15:37;;;;;;;10.05;6.68;;;;;;;8.13;100.00;102385.75;5012476;28;20544;-67
2024/01/30 04:18:02;;;;;;;8.57;7.13;;;;;;;8.10;100.00;102380.53;5010483;28;20030;-67
2024/01/30 04:20:29;;;;;;;11.45;6.85;;;;;;;8.12;100.00;102381.38;5011808;28;20432;-67
2024/01/30 04:22:56;;;;;;;11.38;6.68;;;;;;;8.13;100.00;102378.66;5009330;28;20499;-67
2024/01/30 04:25:22;;;;;;;9.95;6.43;;;;;;;8.15;100.00;102382.16;5011974;28;20029;-67
2024/01/30 04:27:47;;;;;;;8.30;5.85;;;;;;;8.06;100.00;102357.66;5010730;28;20052;-67
2024/01/30 04:30:13;;;;;;;12.45;6.10;;;;;;;8.17;100.00;102372.34;5012282;28;20041;-67
2024/01/30 04:32:39;;;;;;;10.48;6.35;;;;;;;8.16;100.00;102365.31;5010871;28;20057;-67
2024/01/30 04:35:04;;;;;;;8.85;6.13;;;;;;;8.20;100.00;102374.91;5011094;28;20100;-67
2024/01/30 04:37:30;;;;;;;8.07;5.97;;;;;;;8.22;100.00;102366.94;5011646;28;20080;-67
2024/01/30 04:39:56;;;;;;;12.20;6.43;;;;;;;8.22;100.00;102368.72;5010207;28;20078;-67
2024/01/30 04:42:21;;;;;;;10.60;6.07;;;;;;;8.23;100.00;102360.72;5012276;28;20030;-67
2024/01/30 04:44:47;;;;;;;7.68;5.82;;;;;;;8.24;100.00;102357.16;5010974;28;20018;-67
2024/01/30 04:47:12;;;;;;;8.48;6.28;;;;;;;8.25;100.00;102356.25;5010810;28;20021;-67
2024/01/30 04:49:39;;;;;;;6.60;5.57;;;;;;;8.20;100.00;102342.25;5011900;28;20068;-67
2024/01/30 04:52:08;;;;;;;11.13;5.70;;;;;;;8.29;100.00;102346.41;5009820;28;20044;-67
2024/01/30 04:54:35;;;;;;;7.65;6.13;;;;;;;8.27;100.00;102338.53;5010279;28;20032;-66
2024/01/30 04:57:01;;;;;;;7.13;6.22;;;;;;;8.28;100.00;102336.72;5010596;28;20503;-67
2024/01/30 04:59:27;;;;;;;9.32;6.43;;;;;;;8.32;100.00;102355.13;5004548;28;20121;-67
2024/01/30 05:01:53;;;;;;;8.30;6.53;;;;;;;8.34;100.00;102357.75;5006434;28;20193;-67
2024/01/30 05:04:18;;;;;;;7.38;6.32;;;;;;;8.34;100.00;102355.09;5011085;28;20032;-67
2024/01/30 05:06:43;;;;;;;10.25;6.57;;;;;;;8.33;100.00;102354.25;5009286;28;20025;-67
2024/01/30 05:09:09;;;;;;;8.65;6.03;;;;;;;8.34;100.00;102358.63;5011026;28;20037;-67
2024/01/30 05:11:38;;;;;;;10.23;6.35;;;;;;;8.33;100.00;102362.19;5010881;28;20158;-67
2024/01/30 05:14:04;;;;;;;10.15;5.53;;;;;;;8.34;100.00;102355.09;5009841;28;20030;-67
2024/01/30 05:16:29;;;;;;;9.43;6.32;;;;;;;8.35;100.00;102356.84;5011385;28;20026;-67
2024/01/30 05:18:55;;;;;;;8.82;6.50;;;;;;;8.12;100.00;102317.78;5011395;28;20044;-67
2024/01/30 05:21:22;;;;;;;9.35;6.38;;;;;;;8.37;100.00;102355.00;5008007;28;20354;-67
2024/01/30 05:23:50;;;;;;;7.53;5.90;;;;;;;8.30;100.00;102349.03;5010104;28;20026;-67
2024/01/30 05:26:15;;;;;;;8.60;5.78;;;;;;;8.35;100.00;102349.78;5002720;28;20062;-67
2024/01/30 05:28:41;;;;;;;9.27;6.00;;;;;;;8.37;100.00;102347.91;5001546;28;20481;-67
2024/01/30 05:31:09;;;;;;;9.88;6.80;;;;;;;8.39;100.00;102350.56;4997589;28;20022;-67
2024/01/30 05:33:34;;;;;;;9.50;5.43;;;;;;;8.38;100.00;102355.00;5002762;28;20029;-67
2024/01/30 05:36:02;;;;;;;7.22;5.60;;;;;;;8.38;100.00;102354.09;5003223;28;20338;-67
2024/01/30 05:38:31;;;;;;;9.13;6.53;;;;;;;8.42;100.00;102355.78;4998568;28;20060;-66
2024/01/30 05:41:00;;;;;;;11.90;7.13;;;;;;;8.41;100.00;102346.06;5002035;28;20045;-67
2024/01/30 05:43:25;;;;;;;8.38;6.30;;;;;;;8.46;100.00;102344.16;4999207;28;20480;-67
2024/01/30 05:45:53;;;;;;;7.80;5.88;;;;;;;8.48;100.00;102345.00;5003274;28;20029;-67
2024/01/30 05:48:19;;;;;;;7.95;6.50;;;;;;;8.49;100.00;102352.03;4999880;28;20045;-67
2024/01/30 05:50:45;;;;;;;8.45;6.03;;;;;;;8.51;100.00;102358.16;5001293;28;20112;-67
2024/01/30 05:53:10;;;;;;;8.45;6.00;;;;;;;8.50;100.00;102348.47;4999329;28;20048;-67
2024/01/30 05:55:36;;;;;;;8.23;6.28;;;;;;;8.50;100.00;102350.22;5006994;28;20388;-67
2024/01/30 05:58:04;;;;;;;9.27;6.15;;;;;;;8.52;100.00;102356.38;5010422;28;20022;-67
2024/01/30 06:00:34;;;;;;;7.25;5.93;;;;;;;8.54;100.00;102354.56;5010823;28;20500;-67
2024/01/30 06:02:59;;;;;;;8.38;5.85;;;;;;;8.56;100.00;102361.53;5010133;28;20029;-67
2024/01/30 06:05:25;;;;;;;8.60;5.82;;;;;;;8.54;100.00;102358.06;5010342;28;20033;-67
2024/01/30 06:07:50;;;;;;;7.90;6.25;;;;;;;8.53;100.00;102351.03;5008794;28;20044;-67
2024/01/30 06:10:15;;;;;;;8.43;6.10;;;;;;;8.56;100.00;102352.69;5010814;28;20034;-67
2024/01/30 06:12:41;;;;;;;9.88;6.40;;;;;;;8.54;100.00;102349.25;5010360;28;20056;-67
2024/01/30 06:15:07;;;;;;;8.68;5.85;;;;;;;8.56;100.00;102350.94;5012088;28;20029;-67
2024/01/30 06:17:32;;;;;;;11.07;5.97;;;;;;;8.57;100.00;102359.75;5013744;28;20025;-67
2024/01/30 06:20:00;;;;;;;8.13;6.30;;;;;;;8.57;100.00;102357.97;5014502;28;20029;-67
2024/01/30 06:22:25;;;;;;;11.23;5.82;;;;;;;8.60;100.00;102368.47;5014028;28;20068;-67
2024/01/30 06:24:51;;;;;;;6.68;5.40;;;;;;;8.58;100.00;102359.69;5013260;28;20057;-67
2024/01/30 06:27:17;;;;;;;8.55;6.15;;;;;;;8.51;100.00;102346.69;5013414;28;20034;-67
2024/01/30 06:29:43;;;;;;;9.77;8.77;;;;;;;8.56;100.00;102371.25;5013356;28;20036;-67
2024/01/30 06:32:08;;;;;;;11.75;6.25;;;;;;;8.59;100.00;102364.09;5014080;28;20116;-67
2024/01/30 06:34:36;;;;;;;12.25;6.32;;;;;;;8.60;100.00;102379.09;5014233;28;20032;-67
2024/01/30 06:37:01;;;;;;;8.50;5.82;;;;;;;8.61;100.00;102377.31;5012807;28;20468;-67
2024/01/30 06:39:29;;;;;;;8.85;6.28;;;;;;;8.59;100.00;102372.06;5014482;28;20050;-67
2024/01/30 06:41:54;;;;;;;9.95;6.03;;;;;;;8.58;100.00;102364.13;5013548;28;20030;-67
2024/01/30 06:44:20;;;;;;;7.22;5.75;;;;;;;8.64;100.00;102374.56;5014006;28;20072;-67
2024/01/30 06:46:45;;;;;;;9.10;5.68;;;;;;;8.64;100.00;102375.41;5014126;28;20034;-67
2024/01/30 06:49:10;;;;;;;10.68;6.20;;;;;;;8.67;100.00;102377.13;5012326;28;20029;-67
2024/01/30 06:51:36;;;;;;;8.68;6.10;;;;;;;8.63;100.00;102364.88;5013725;28;20033;-67
2024/01/30 06:54:03;;;;;;;8.23;5.78;;;;;;;8.68;100.00;102376.22;5012458;28;20451;-67
2024/01/30 06:56:29;;;;;;;11.65;6.32;;;;;;;8.64;100.00;102378.06;5013129;28;20087;-67
2024/01/30 06:58:54;;;;;;;10.07;6.40;;;;;;;8.67;100.00;102398.34;5013593;28;20444;-67
2024/01/30 07:01:20;;;;;;;10.55;6.32;;;;;;;8.71;100.00;102413.25;5012145;28;20022;-67
2024/01/30 07:03:48;;;;;;;8.15;6.00;;;;;;;8.71;100.00;102410.59;5012055;28;20465;-67
2024/01/30 07:06:16;;;;;;;9.25;6.03;;;;;;;8.71;100.00;102402.66;5012804;28;20100;-67
2024/01/30 07:08:41;;;;;;;8.80;6.57;;;;;;;8.74;100.00;102409.66;5013484;28;20401;-68
2024/01/30 07:11:09;;;;;;;7.35;6.03;;;;;;;8.77;100.00;102418.38;5012990;28;20038;-67
2024/01/30 07:13:35;;;;;;;11.75;6.90;;;;;;;8.77;100.00;102425.47;5013445;28;20037;-67
2024/01/30 07:16:03;;;;;;;14.55;6.70;;;;;;;8.78;100.00;102416.59;5011801;28;20477;-67
2024/01/30 07:18:28;;;;;;;9.73;6.03;;;;;;;8.73;100.00;102411.41;5013084;28;20022;-67
2024/01/30 07:20:53;;;;;;;9.43;6.47;;;;;;;8.84;100.00;102422.56;5013376;28;20033;-67
2024/01/30 07:23:19;;;;;;;10.00;6.18;;;;;;;8.83;100.00;102423.50;5013245;28;20473;-67
2024/01/30 07:25:45;;;;;;;9.05;6.00;;;;;;;8.75;100.00;102422.84;5010483;28;20034;-67
2024/01/30 07:28:11;;;;;;;9.13;6.53;;;;;;;8.85;100.00;102426.97;5009614;28;20025;-67
2024/01/30 07:30:37;;;;;;;9.43;6.55;;;;;;;8.85;100.00;102426.97;5013516;28;20081;-67
2024/01/30 07:33:02;;;;;;;8.45;6.25;;;;;;;8.84;100.00;102425.22;5007698;28;20038;-67
2024/01/30 07:35:28;;;;;;;12.63;7.13;;;;;;;8.83;100.00;102434.09;5011001;28;20029;-67
2024/01/30 07:37:53;;;;;;;11.57;6.82;;;;;;;8.84;100.00;102440.28;5001245;28;20026;-68
2024/01/30 07:40:19;;;;;;;9.55;6.15;;;;;;;8.86;100.00;102438.47;5003073;28;20053;-68
2024/01/30 07:42:44;;;;;;;9.30;6.20;;;;;;;8.81;100.00;102427.97;5010608;28;20054;-68
2024/01/30 07:45:10;;;;;;;8.43;6.43;;;;;;;8.85;100.00;102439.34;5012545;28;20037;-67
2024/01/30 07:47:35;;;;;;;12.40;10.43;;;;;;;8.84;100.00;102438.47;5012284;28;20044;-68
2024/01/30 07:50:01;;;;;;;8.52;6.40;;;;;;;8.89;100.00;102440.16;5011657;28;20117;-68
2024/01/30 07:52:26;;;;;;;15.05;7.18;;;;;;;8.89;100.00;102446.31;5010776;28;20041;-68
2024/01/30 07:54:52;;;;;;;9.02;6.45;;;;;;;8.90;100.00;102444.53;5012241;28;20088;-68
2024/01/30 07:57:18;;;;;;;8.63;6.05;;;;;;;8.93;100.00;102447.94;5012525;28;20456;-67
2024/01/30 07:59:46;;;;;;;8.75;7.10;;;;;;;8.93;100.00;102441.78;5012048;28;20623;-67
2024/01/30 08:02:14;;;;;;;14.48;8.27;;;;;;;8.77;100.00;102434.28;5010942;28;20076;-67
2024/01/30 08:04:40;;;;;;;11.15;7.20;;;;;;;8.95;100.00;102455.88;5011387;28;20381;-67
2024/01/30 08:07:07;;;;;;;13.02;6.43;;;;;;;8.96;100.00;102461.13;5010368;28;20060;-67
2024/01/30 08:09:33;;;;;;;11.68;6.93;;;;;;;8.98;100.00;102461.09;5012388;28;20021;-67
2024/01/30 08:12:00;;;;;;;12.05;7.18;;;;;;;9.01;100.00;102471.63;5007867;28;20023;-67
2024/01/30 08:14:26;;;;;;;10.05;6.82;;;;;;;9.03;100.00;102469.75;5003734;28;20065;-67
2024/01/30 08:16:51;;;;;;;10.68;6.55;;;;;;;9.01;100.00;102461.00;5010150;28;20057;-68
2024/01/30 08:19:17;;;;;;;10.77;6.63;;;;;;;9.09;100.00;102464.28;5011989;28;20083;-67
2024/01/30 08:21:43;;;;;;;8.95;6.10;;;;;;;9.06;100.00;102448.47;5011775;28;20025;-66
2024/01/30 08:24:08;;;;;;;11.82;6.82;;;;;;;9.17;100.00;102469.34;5013387;28;20034;-67
2024/01/30 08:26:36;;;;;;;10.95;6.93;;;;;;;9.19;100.00;102468.38;5012658;28;20044;-67
2024/01/30 08:29:04;;;;;;;13.95;6.43;;;;;;;9.13;100.00;102455.31;5011101;28;20100;-67
2024/01/30 08:31:32;;;;;;;12.25;10.40;;;;;;;9.19;100.00;102459.56;5010059;28;20053;-68
2024/01/30 08:34:00;;;;;;;10.00;6.82;;;;;;;9.30;100.00;102465.41;5011697;28;20065;-67
2024/01/30 08:36:26;;;;;;;13.57;7.13;;;;;;;9.32;100.00;102464.44;5008900;28;20616;-68
2024/01/30 08:38:51;;;;;;;10.00;5.65;;;;;;;9.39;100.00;102464.25;5010869;28;20038;-66
2024/01/30 08:41:16;;;;;;;9.23;6.95;;;;;;;9.37;100.00;102471.38;5009974;28;20022;-68
2024/01/30 08:43:42;;;;;;;16.40;6.88;;;;;;;9.44;100.00;102471.16;5010232;28;20025;-67
2024/01/30 08:46:07;;;;;;;11.18;6.65;;;;;;;9.43;100.00;102464.09;5009473;28;20675;-67
2024/01/30 08:48:33;;;;;;;9.80;7.30;;;;;;;9.45;100.00;102466.69;5010034;28;20017;-68
2024/01/30 08:50:58;;;;;;;11.15;6.53;;;;;;;9.46;100.00;102468.44;5009636;28;20037;-68
2024/01/30 08:53:24;;;;;;;12.07;7.13;;;;;;;9.54;100.00;102463.75;5010523;28;20481;-67
2024/01/30 08:55:49;;;;;;;10.43;6.70;;;;;;;9.59;100.00;102467.13;5010768;28;20516;-68
2024/01/30 08:58:18;;;;;;;10.35;7.28;;;;;;;9.56;100.00;102464.56;5011196;28;20021;-68
2024/01/30 09:00:43;;;;;;;9.75;6.78;;;;;;;9.59;100.00;102460.91;5010854;28;20025;-68
2024/01/30 09:03:08;;;;;;;10.77;6.57;;;;;;;9.63;100.00;102466.09;5011303;28;20392;-68
2024/01/30 09:05:34;;;;;;;14.00;9.82;;;;;;;9.68;100.00;102469.47;5011373;28;20022;-68
2024/01/30 09:07:59;;;;;;;10.57;6.60;;;;;;;9.69;100.00;102471.19;5010646;28;20053;-68
2024/01/30 09:10:24;;;;;;;10.80;6.72;;;;;;;9.61;100.00;102457.28;5010859;28;20451;-68
2024/01/30 09:12:50;;;;;;;11.18;6.50;;;;;;;9.72;100.00;102472.88;5009205;28;20037;-67
2024/01/30 09:15:15;;;;;;;14.23;6.68;;;;;;;9.76;100.00;102469.19;5010878;28;20546;-68
2024/01/30 09:17:41;;;;;;;11.65;6.75;;;;;;;9.80;100.00;102477.97;5009547;28;20116;-68
2024/01/30 09:20:07;;;;;;;8.27;6.80;;;;;;;9.89;100.00;102480.31;5009978;28;20484;-68
2024/01/30 09:22:32;;;;;;;8.90;6.10;;;;;;;9.88;100.00;102482.09;5010352;28;20030;-68
2024/01/30 09:24:58;;;;;;;16.15;7.15;;;;;;;9.95;100.00;102480.97;5009559;28;20036;-67
2024/01/30 09:27:23;;;;;;;13.93;5.78;;;;;;;9.98;100.00;102480.84;5009301;28;20044;-67
2024/01/30 09:29:49;;;;;;;11.02;9.38;;;;;;;10.00;100.00;102484.34;5010782;28;20175;-68
2024/01/30 09:32:14;;;;;;;9.93;6.68;;;;;;;10.04;100.00;102492.19;5010246;28;20037;-68
2024/01/30 09:34:41;;;;;;;7.78;5.95;;;;;;;10.03;100.00;102486.03;5009511;28;20021;-68
2024/01/30 09:37:07;;;;;;;8.30;6.32;;;;;;;10.09;100.00;102492.88;5009355;28;20045;-68
2024/01/30 09:39:33;;;;;;;11.98;5.72;;;;;;;10.09;100.00;102493.78;5010201;28;20132;-68
2024/01/30 09:42:20;;;;;;;10.82;6.97;;;;;;;10.18;100.00;102500.56;5009032;28;20500;-68
2024/01/30 09:44:50;;;;;;;12.18;6.68;;;;;;;10.19;100.00;102508.47;5010503;28;20060;-68
2024/01/30 09:47:17;;;;;;;13.05;10.00;;;;;;;10.16;100.00;102505.06;5009602;28;20030;-68
2024/01/30 09:49:43;;;;;;;14.05;10.20;;;;;;;10.22;100.00;102513.69;5004314;28;20394;-68
2024/01/30 09:52:11;;;;;;;8.52;6.43;;;;;;;10.24;100.00;102509.19;5004597;28;20036;-68
2024/01/30 09:54:38;;;;;;;13.20;7.30;;;;;;;10.26;100.00;102506.47;5004717;28;20680;-66
2024/01/30 09:57:04;;;;;;;15.63;6.45;;;;;;;10.24;100.00;102503.88;5004471;28;20109;-67
2024/01/30 09:59:30;;;;;;;12.85;7.40;;;;;;;10.30;100.00;102507.28;5010067;28;20088;-67
2024/01/30 10:01:56;;;;;;;15.93;9.95;;;;;;;10.18;100.00;102493.47;5007924;28;20021;-68
2024/01/30 10:04:22;;;;;;;11.85;9.75;;;;;;;10.28;100.00;102507.31;5009509;28;20540;-68
2024/01/30 10:06:47;;;;;;;15.75;6.90;;;;;;;10.30;100.00;102504.63;5010097;28;20030;-68
2024/01/30 10:09:13;;;;;;;11.57;7.35;;;;;;;10.39;100.00;102509.63;5009197;28;20393;-67
2024/01/30 10:11:39;;;;;;;12.65;10.52;;;;;;;10.30;100.00;102517.94;4993319;28;20030;-67
2024/01/30 10:14:04;;;;;;;16.98;10.27;;;;;;;10.33;100.00;102509.84;5010765;28;20026;-68
2024/01/30 10:16:29;;;;;;;13.02;6.65;;;;;;;10.36;100.00;102517.72;5010702;28;20037;-68
2024/01/30 10:18:55;;;;;;;12.35;9.98;;;;;;;10.32;100.00;102516.06;5010488;28;20161;-68
2024/01/30 10:21:23;;;;;;;13.30;6.88;;;;;;;10.34;100.00;102522.19;5008785;28;20030;-68
2024/01/30 10:23:49;;;;;;;12.70;10.57;;;;;;;10.40;100.00;102516.66;5010149;28;20438;-68
2024/01/30 10:26:18;;;;;;;16.40;11.27;;;;;;;10.42;100.00;102522.81;5009802;28;20449;-68
2024/01/30 10:28:45;;;;;;;17.45;6.60;;;;;;;10.46;100.00;102530.59;5010014;28;20025;-68
2024/01/30 10:31:10;;;;;;;10.02;6.60;;;;;;;10.40;100.00;102517.53;5010552;28;20033;-68
2024/01/30 10:33:36;;;;;;;16.50;10.93;;;;;;;10.50;100.00;102538.47;5010317;28;20453;-67
2024/01/30 10:36:04;;;;;;;9.57;6.78;;;;;;;10.58;100.00;102547.91;5008932;28;20026;-68
2024/01/30 10:38:30;;;;;;;12.30;10.80;;;;;;;10.57;100.00;102532.91;5009554;28;20026;-68
2024/01/30 10:41:01;;;;;;;10.82;7.10;;;;;;;10.66;100.00;102537.00;5008596;28;20071;-67
2024/01/30 10:43:35;;;;;;;11.52;6.90;;;;;;;10.64;100.00;102526.41;4987778;28;20025;-68
2024/01/30 10:46:17;;;;;;;13.77;10.65;;;;;;;10.59;100.00;102535.47;5006767;28;20033;-67
2024/01/30 10:48:48;;;;;;;15.20;10.05;;;;;;;10.61;100.00;102533.66;5007226;28;20030;-67
2024/01/30 10:51:14;;;;;;;12.50;7.18;;;;;;;10.68;100.00;102537.84;5007985;28;20056;-67
2024/01/30 10:53:41;;;;;;;16.95;7.38;;;;;;;10.72;100.00;102536.78;5007212;28;20489;-67
2024/01/30 10:56:11;;;;;;;14.85;7.82;;;;;;;10.77;100.00;102528.66;5003160;28;20022;-67
2024/01/30 10:58:36;;;;;;;15.40;10.82;;;;;;;10.69;100.00;102534.25;5010388;28;20040;-67
2024/01/30 11:01:03;;;;;;;11.65;7.22;;;;;;;10.84;100.00;102544.31;5011512;28;20014;-67
2024/01/30 11:03:29;;;;;;;11.73;7.25;;;;;;;10.79;100.00;102535.63;5011833;28;20026;-67
2024/01/30 11:05:59;;;;;;;15.43;7.20;;;;;;;10.80;100.00;102536.53;5012944;28;20049;-67
2024/01/30 11:08:27;;;;;;;11.57;7.55;;;;;;;10.76;100.00;102538.41;5013074;28;20026;-67
2024/01/30 11:11:00;;;;;;;19.25;12.13;;;;;;;10.70;100.00;102538.63;5011578;28;20031;-67
2024/01/30 11:13:31;;;;;;;14.93;8.57;;;;;;;10.68;100.00;102528.06;5013054;28;20552;-67
2024/01/30 11:16:02;;;;;;;22.38;8.32;;;;;;;10.69;100.00;102551.06;5002319;28;20398;-67
2024/01/30 11:18:30;;;;;;;19.42;11.70;;;;;;;10.69;100.00;102540.44;5006313;28;20451;-67